Time;durP1;ratioP1;P1;durP2;ratioP2;P2;SDS_P1;SDS_P2;PMS_P1;PMS_P2;Temp;Humidity;BMP_temperature;BMP_pressure;BME280_temperature;BME280_humidity;BME280_pressure;Samples;Min_cycle;Max_cycle;Signal;HPM_P1;HPM_P2
2023/02/02 00:02:05;;;;;;;10.25;3.35;;;10.90;67.90;;;;;;4946703;28;20031;-79
2023/02/02 00:04:33;;;;;;;11.32;2.25;;;10.90;68.00;;;;;;4944440;29;20042;-80
2023/02/02 00:07:01;;;;;;;13.02;2.65;;;10.90;68.00;;;;;;4944616;28;20658;-80
2023/02/02 00:09:29;;;;;;;9.82;2.80;;;10.90;68.00;;;;;;4943763;28;20039;-79
2023/02/02 00:11:56;;;;;;;8.52;2.65;;;10.90;68.00;;;;;;4928174;29;20503;-79
2023/02/02 00:14:22;;;;;;;10.75;2.53;;;10.90;68.00;;;;;;4936644;28;20039;-78
2023/02/02 00:16:53;;;;;;;12.68;3.58;;;11.00;68.30;;;;;;4946336;28;20032;-79
2023/02/02 00:19:23;;;;;;;17.23;4.32;;;10.90;68.10;;;;;;4945511;29;20119;-79
2023/02/02 00:21:49;;;;;;;13.52;2.92;;;10.90;68.10;;;;;;4944141;28;20052;-81
2023/02/02 00:24:19;;;;;;;48.00;4.75;;;10.90;68.10;;;;;;4944174;29;20508;-80
2023/02/02 00:26:48;;;;;;;8.43;2.42;;;10.90;68.10;;;;;;4946109;28;20073;-79
2023/02/02 00:29:27;;;;;;;13.95;3.72;;;10.90;68.20;;;;;;4943807;29;20051;-80
2023/02/02 00:31:54;;;;;;;13.32;2.97;;;10.90;68.20;;;;;;4943554;28;20062;-78
2023/02/02 00:34:20;;;;;;;8.10;2.22;;;10.90;68.30;;;;;;4944970;29;20070;-79
2023/02/02 00:36:47;;;;;;;11.45;2.67;;;10.80;68.10;;;;;;4944765;29;20138;-79
2023/02/02 00:39:17;;;;;;;11.63;2.22;;;10.80;68.10;;;;;;4944208;29;20182;-79
2023/02/02 00:41:43;;;;;;;11.43;2.72;;;10.80;68.20;;;;;;4943984;29;20114;-79
2023/02/02 00:46:54;;;;;;;13.32;1.70;;;10.80;68.30;;;;;;4944575;28;20035;-78
2023/02/02 00:49:20;;;;;;;9.02;2.08;;;10.70;68.10;;;;;;4946064;28;20028;-77
2023/02/02 00:51:46;;;;;;;14.02;2.40;;;10.70;68.20;;;;;;4943665;28;20047;-77
2023/02/02 00:54:13;;;;;;;12.82;2.78;;;10.80;68.40;;;;;;4943786;29;20105;-78
2023/02/02 00:56:39;;;;;;;9.70;2.47;;;10.70;68.30;;;;;;4943890;28;20062;-78
2023/02/02 00:59:05;;;;;;;10.02;2.83;;;10.70;68.30;;;;;;4936837;29;20085;-78
2023/02/02 01:01:31;;;;;;;8.90;2.17;;;10.70;68.40;;;;;;4943464;29;20674;-79
2023/02/02 01:03:57;;;;;;;12.07;3.40;;;10.70;68.40;;;;;;4935639;29;20054;-78
2023/02/02 01:06:24;;;;;;;11.77;2.95;;;10.70;68.40;;;;;;4944815;28;20117;-78
2023/02/02 01:08:50;;;;;;;9.95;3.55;;;10.70;68.40;;;;;;4942566;29;20110;-77
2023/02/02 01:11:16;;;;;;;8.77;2.00;;;10.70;68.50;;;;;;4941247;29;20550;-77
2023/02/02 01:13:42;;;;;;;9.27;3.50;;;10.70;68.50;;;;;;4942999;29;20024;-78
2023/02/02 01:16:09;;;;;;;11.02;2.55;;;10.70;68.50;;;;;;4934480;28;20054;-78
2023/02/02 01:18:35;;;;;;;12.13;3.80;;;10.70;68.50;;;;;;4943180;29;20035;-78
2023/02/02 01:21:10;;;;;;;9.70;2.47;;;10.70;68.50;;;;;;4944255;28;20107;-78
2023/02/02 01:23:37;;;;;;;11.45;2.67;;;10.70;68.60;;;;;;4939238;29;20047;-79
2023/02/02 01:26:07;;;;;;;8.57;1.98;;;10.70;68.60;;;;;;4943120;28;20042;-79
2023/02/02 01:28:33;;;;;;;10.60;2.42;;;10.70;68.60;;;;;;4937189;28;20048;-79
2023/02/02 01:31:14;;;;;;;7.93;1.90;;;10.60;68.40;;;;;;4935007;29;20248;-78
2023/02/02 01:33:42;;;;;;;14.25;3.22;;;10.60;68.50;;;;;;4940619;28;20039;-78
2023/02/02 01:36:12;;;;;;;7.28;1.77;;;10.60;68.50;;;;;;4943181;29;20039;-79
2023/02/02 01:38:39;;;;;;;11.85;2.72;;;10.60;68.50;;;;;;4941784;28;20038;-78
2023/02/02 01:41:05;;;;;;;12.55;2.03;;;10.60;68.50;;;;;;4941995;29;20031;-78
2023/02/02 01:43:41;;;;;;;13.60;2.20;;;10.60;68.50;;;;;;4944399;28;20050;-80
2023/02/02 01:46:16;;;;;;;13.00;2.70;;;10.60;68.60;;;;;;4936223;28;20110;-79
2023/02/02 01:49:05;;;;;;;7.88;2.88;;;10.60;68.60;;;;;;4938230;28;20660;-79
2023/02/02 01:51:48;;;;;;;10.25;2.13;;;10.60;68.60;;;;;;4942454;28;20061;-78
2023/02/02 01:54:24;;;;;;;11.70;3.92;;;10.60;68.60;;;;;;4942468;29;20074;-77
2023/02/02 01:57:03;;;;;;;9.52;2.47;;;10.60;68.70;;;;;;4935649;29;20041;-77
2023/02/02 01:59:30;;;;;;;13.13;3.25;;;10.60;68.70;;;;;;4944179;28;20178;-78
2023/02/02 02:01:56;;;;;;;8.10;2.10;;;10.60;68.70;;;;;;4943485;28;20090;-78
2023/02/02 02:04:24;;;;;;;10.43;2.92;;;10.60;68.70;;;;;;4942342;29;20057;-78
2023/02/02 02:06:52;;;;;;;10.15;3.08;;;10.60;68.70;;;;;;4935465;28;20113;-80
2023/02/02 02:09:18;;;;;;;10.88;2.35;;;10.60;68.70;;;;;;4959418;28;20074;-79
2023/02/02 02:11:44;;;;;;;8.95;3.20;;;10.70;69.00;;;;;;4942552;29;20491;-79
2023/02/02 02:17:37;;;;;;;8.93;1.90;;;10.60;68.80;;;;;;4944111;28;20526;-78
2023/02/02 02:26:50;;;;;;;10.75;2.55;;;10.60;68.90;;;;;;4930608;29;20130;-78
2023/02/02 02:29:48;;;;;;;8.63;2.15;;;10.60;68.90;;;;;;4936667;28;20047;-78
2023/02/02 02:32:34;;;;;;;10.85;2.50;;;10.60;68.90;;;;;;4931449;28;20039;-78
2023/02/02 02:35:00;;;;;;;8.23;3.55;;;10.60;69.00;;;;;;4941424;28;20031;-78
2023/02/02 02:37:43;;;;;;;10.75;2.72;;;10.60;68.90;;;;;;4945472;28;20117;-77
2023/02/02 02:40:19;;;;;;;12.27;4.70;;;10.60;69.00;;;;;;4944877;29;20117;-79
2023/02/02 02:42:56;;;;;;;10.10;2.42;;;10.60;69.00;;;;;;4941114;28;20039;-78
2023/02/02 02:45:25;;;;;;;14.43;2.38;;;10.60;69.00;;;;;;4945815;29;20035;-78
2023/02/02 02:47:52;;;;;;;12.93;1.83;;;10.60;69.00;;;;;;4946679;28;20563;-78
2023/02/02 02:50:19;;;;;;;8.02;2.15;;;10.60;69.00;;;;;;4949277;29;20494;-78
2023/02/02 02:52:48;;;;;;;9.55;2.10;;;10.60;69.10;;;;;;4944018;28;20055;-77
2023/02/02 02:55:14;;;;;;;7.75;1.83;;;10.60;69.10;;;;;;4936631;29;20463;-78
2023/02/02 02:57:46;;;;;;;10.00;2.40;;;10.60;69.10;;;;;;4948632;29;20046;-78
2023/02/02 03:00:54;;;;;;;8.57;2.10;;;10.60;69.10;;;;;;4938746;29;20544;-79
2023/02/02 03:03:23;;;;;;;12.63;2.33;;;10.70;69.30;;;;;;4939177;29;20028;-78
2023/02/02 03:06:15;;;;;;;7.20;2.38;;;10.60;69.00;;;;;;4949460;29;20459;-79
2023/02/02 03:08:48;;;;;;;8.60;3.15;;;10.60;69.10;;;;;;4949227;29;20127;-79
2023/02/02 03:11:15;;;;;;;11.40;2.13;;;10.60;69.10;;;;;;4946167;28;20035;-79
2023/02/02 03:13:42;;;;;;;11.82;2.30;;;10.70;69.20;;;;;;4944212;29;20078;-79
2023/02/02 03:16:09;;;;;;;11.02;2.42;;;10.60;69.10;;;;;;4951227;28;20146;-79
2023/02/02 03:18:35;;;;;;;10.50;2.33;;;10.60;69.10;;;;;;4945053;28;20024;-78
2023/02/02 03:21:01;;;;;;;7.47;1.83;;;10.60;69.10;;;;;;4949302;29;20031;-79
2023/02/02 03:23:27;;;;;;;7.68;1.83;;;10.70;69.30;;;;;;4942350;28;20567;-80
2023/02/02 03:25:54;;;;;;;8.05;1.98;;;10.70;69.30;;;;;;4949225;29;20098;-79
2023/02/02 03:28:22;;;;;;;8.82;2.42;;;10.70;69.30;;;;;;4945066;28;20044;-80
2023/02/02 03:30:49;;;;;;;8.15;2.67;;;10.70;69.30;;;;;;4942916;29;20047;-81
2023/02/02 03:33:17;;;;;;;7.68;1.80;;;10.70;69.30;;;;;;4950192;29;20046;-81
2023/02/02 03:35:43;;;;;;;7.13;1.58;;;10.70;69.30;;;;;;4949193;29;20054;-81
2023/02/02 03:38:11;;;;;;;10.50;2.58;;;10.70;69.30;;;;;;4950419;28;20117;-80
2023/02/02 03:40:38;;;;;;;4.93;1.95;;;10.60;69.10;;;;;;4950534;28;20054;-80
2023/02/02 03:43:04;;;;;;;9.05;1.77;;;10.70;69.30;;;;;;4948709;28;20636;-80
2023/02/02 03:45:31;;;;;;;10.73;1.92;;;10.60;69.20;;;;;;4946111;29;20065;-80
2023/02/02 03:47:57;;;;;;;9.05;2.00;;;10.60;69.20;;;;;;4945564;28;20039;-80
2023/02/02 03:50:24;;;;;;;7.60;2.03;;;10.60;69.20;;;;;;4939908;29;20087;-81
2023/02/02 03:52:50;;;;;;;15.00;2.42;;;10.60;69.20;;;;;;4951622;28;20130;-80
2023/02/02 03:55:16;;;;;;;14.05;2.53;;;10.60;69.20;;;;;;4948843;29;20458;-81
2023/02/02 03:57:42;;;;;;;9.40;3.15;;;10.60;69.20;;;;;;4949704;29;20069;-81
2023/02/02 04:00:08;;;;;;;9.98;2.58;;;10.60;69.80;;;;;;4942815;29;20058;-80
2023/02/02 04:02:38;;;;;;;12.23;2.00;;;10.60;69.20;;;;;;4953082;29;20370;-81
2023/02/02 04:05:04;;;;;;;10.40;3.50;;;10.60;69.20;;;;;;4934772;29;20051;-81
2023/02/02 04:07:30;;;;;;;11.15;1.73;;;10.60;69.30;;;;;;4948744;29;20027;-80
2023/02/02 04:09:56;;;;;;;7.93;2.22;;;10.60;69.30;;;;;;4949951;29;20035;-80
2023/02/02 04:12:22;;;;;;;6.85;1.50;;;10.60;69.30;;;;;;4952107;28;20415;-80
2023/02/02 04:14:48;;;;;;;8.88;2.15;;;10.60;69.30;;;;;;4949329;29;20035;-79
2023/02/02 04:17:14;;;;;;;12.85;2.00;;;10.60;69.30;;;;;;4945791;29;20039;-80
2023/02/02 04:19:40;;;;;;;10.52;2.95;;;10.60;69.30;;;;;;4933520;29;20036;-80
2023/02/02 04:22:05;;;;;;;10.10;2.55;;;10.60;69.30;;;;;;4945696;28;20619;-80
2023/02/02 04:24:31;;;;;;;12.43;2.72;;;10.60;69.30;;;;;;4948106;29;20043;-79
2023/02/02 04:26:57;;;;;;;10.00;2.10;;;10.60;69.30;;;;;;4948406;29;20031;-79
2023/02/02 04:29:25;;;;;;;7.68;1.65;;;10.60;69.30;;;;;;4943217;28;20043;-79
2023/02/02 04:31:51;;;;;;;10.77;2.35;;;10.60;69.30;;;;;;4946300;29;20047;-79
2023/02/02 04:34:17;;;;;;;8.32;2.10;;;10.60;69.40;;;;;;4949416;28;20023;-79
2023/02/02 04:36:43;;;;;;;13.10;3.38;;;10.60;69.30;;;;;;4948737;29;20038;-81
2023/02/02 04:39:12;;;;;;;9.57;1.98;;;10.60;69.30;;;;;;4948618;28;20548;-80
2023/02/02 04:41:38;;;;;;;9.93;1.90;;;10.60;69.30;;;;;;4947169;28;20030;-80
2023/02/02 04:44:05;;;;;;;8.88;2.92;;;10.60;69.40;;;;;;4949302;29;20055;-80
2023/02/02 04:46:31;;;;;;;7.00;2.47;;;10.50;69.20;;;;;;4940009;28;20440;-81
2023/02/02 04:48:57;;;;;;;9.65;1.80;;;10.50;69.20;;;;;;4950630;28;20054;-80
2023/02/02 04:51:23;;;;;;;11.73;2.97;;;10.50;69.20;;;;;;4949789;29;20110;-81
2023/02/02 04:53:49;;;;;;;9.93;1.70;;;10.60;69.40;;;;;;4948273;29;20038;-79
2023/02/02 04:56:17;;;;;;;9.35;2.20;;;10.60;69.40;;;;;;4951039;29;20041;-81
2023/02/02 04:58:43;;;;;;;6.72;1.67;;;10.60;69.50;;;;;;4949936;29;20379;-83
2023/02/02 05:01:19;;;;;;;9.25;1.73;;;10.50;69.30;;;;;;4955125;29;20034;-85
2023/02/02 05:03:46;;;;;;;6.88;2.67;;;10.50;69.40;;;;;;4957458;29;20058;-84
2023/02/02 05:06:12;;;;;;;8.50;1.85;;;10.60;69.50;;;;;;4961535;28;20034;-83
2023/02/02 05:08:39;;;;;;;5.88;1.75;;;10.60;70.10;;;;;;4956739;28;20063;-86
2023/02/02 05:11:06;;;;;;;8.18;1.80;;;10.60;69.60;;;;;;4973276;28;20336;-85
2023/02/02 05:13:33;;;;;;;6.75;1.70;;;10.60;69.60;;;;;;4944278;29;20038;-86
2023/02/02 05:15:58;;;;;;;8.02;2.05;;;10.60;69.60;;;;;;4949471;28;20054;-80
2023/02/02 05:18:25;;;;;;;9.70;2.60;;;10.60;69.60;;;;;;4949773;28;20090;-80
2023/02/02 05:20:51;;;;;;;7.28;1.33;;;10.60;69.60;;;;;;4950292;28;20034;-80
2023/02/02 05:23:18;;;;;;;9.52;1.95;;;10.60;69.70;;;;;;4948509;29;20043;-81
2023/02/02 05:25:44;;;;;;;12.38;2.70;;;10.60;69.70;;;;;;4941360;28;20027;-80
2023/02/02 05:28:10;;;;;;;7.72;2.20;;;10.60;69.70;;;;;;4945765;28;20097;-80
2023/02/02 05:30:38;;;;;;;8.30;1.60;;;10.60;69.80;;;;;;4948571;29;20394;-80
2023/02/02 05:33:04;;;;;;;6.82;1.30;;;10.60;69.80;;;;;;4947278;29;20039;-79
2023/02/02 05:35:30;;;;;;;8.60;2.80;;;10.60;69.80;;;;;;4949063;29;20090;-80
2023/02/02 05:37:56;;;;;;;7.13;1.38;;;10.70;70.00;;;;;;4952440;28;20039;-80
2023/02/02 05:40:22;;;;;;;10.35;2.13;;;10.60;69.90;;;;;;4941985;28;20090;-81
2023/02/02 05:42:48;;;;;;;7.75;1.70;;;10.60;69.90;;;;;;4950554;29;20082;-81
2023/02/02 05:45:14;;;;;;;6.85;1.50;;;10.60;69.90;;;;;;4948437;28;20039;-80
2023/02/02 05:47:40;;;;;;;7.68;1.50;;;10.70;70.20;;;;;;4937044;28;20031;-79
2023/02/02 05:50:06;;;;;;;9.75;1.85;;;10.70;70.20;;;;;;4946300;28;20035;-80
2023/02/02 05:52:34;;;;;;;9.38;3.08;;;10.70;70.20;;;;;;4941374;28;20038;-80
2023/02/02 05:55:00;;;;;;;9.23;1.48;;;10.70;70.30;;;;;;4940418;29;20117;-78
2023/02/02 05:57:26;;;;;;;6.97;1.90;;;10.70;70.30;;;;;;4944110;28;20039;-79
2023/02/02 05:59:53;;;;;;;8.07;1.38;;;10.70;70.30;;;;;;4942412;29;20138;-80
2023/02/02 06:02:19;;;;;;;8.93;2.65;;;10.70;70.40;;;;;;4944070;28;20121;-81
2023/02/02 06:04:45;;;;;;;8.07;2.28;;;10.70;70.40;;;;;;4940743;29;20510;-80
2023/02/02 06:07:12;;;;;;;5.35;1.52;;;10.70;70.40;;;;;;4945073;28;20046;-80
2023/02/02 06:09:38;;;;;;;6.85;2.67;;;10.70;70.90;;;;;;4941934;29;20035;-81
2023/02/02 06:12:04;;;;;;;7.50;1.50;;;10.70;70.50;;;;;;4944928;28;20055;-81
2023/02/02 06:14:30;;;;;;;4.65;1.30;;;10.80;70.70;;;;;;4943534;29;20064;-81
2023/02/02 06:16:56;;;;;;;6.78;1.70;;;10.70;70.50;;;;;;4948818;29;20039;-79
2023/02/02 06:19:22;;;;;;;6.38;1.80;;;10.80;70.70;;;;;;4947207;28;20205;-80
2023/02/02 06:21:48;;;;;;;9.38;1.70;;;10.80;70.70;;;;;;4948168;28;20133;-80
2023/02/02 06:24:14;;;;;;;7.97;1.42;;;10.80;70.80;;;;;;4946454;28;20046;-80
2023/02/02 06:26:40;;;;;;;8.77;2.15;;;10.80;70.80;;;;;;4952421;29;20063;-80
2023/02/02 06:29:06;;;;;;;5.80;1.38;;;10.80;70.80;;;;;;4949103;28;20066;-79
2023/02/02 06:31:32;;;;;;;10.68;2.05;;;10.80;70.80;;;;;;4952207;28;20271;-78
2023/02/02 06:33:59;;;;;;;5.55;1.10;;;10.80;70.90;;;;;;4946832;29;20039;-78
2023/02/02 06:36:26;;;;;;;4.18;1.67;;;10.80;70.90;;;;;;4948574;28;20047;-77
2023/02/02 06:38:54;;;;;;;3.92;1.40;;;10.80;70.90;;;;;;4943892;29;20106;-78
2023/02/02 06:41:20;;;;;;;7.70;1.67;;;10.80;71.00;;;;;;4945141;28;20395;-80
2023/02/02 06:43:47;;;;;;;7.00;1.35;;;10.80;71.00;;;;;;4942213;28;20138;-80
2023/02/02 06:46:14;;;;;;;5.65;1.77;;;10.80;71.00;;;;;;4937378;28;20038;-80
2023/02/02 06:48:40;;;;;;;7.32;1.33;;;10.80;71.00;;;;;;4943688;29;20043;-80
2023/02/02 06:51:06;;;;;;;9.63;1.80;;;10.80;71.10;;;;;;4941771;29;20438;-77
2023/02/02 06:53:33;;;;;;;4.05;1.63;;;10.80;71.10;;;;;;4935943;29;20035;-76
2023/02/02 06:56:05;;;;;;;7.28;2.25;;;10.80;71.10;;;;;;4942834;28;20042;-78
2023/02/02 06:58:32;;;;;;;7.43;1.60;;;10.80;71.20;;;;;;4938539;28;20053;-78
2023/02/02 07:01:06;;;;;;;5.57;1.40;;;10.80;71.20;;;;;;4946877;29;20031;-77
2023/02/02 07:03:32;;;;;;;5.85;2.38;;;10.80;71.40;;;;;;4943071;29;20050;-77
2023/02/02 07:05:58;;;;;;;7.95;2.88;;;10.80;71.60;;;;;;4942458;29;20039;-77
2023/02/02 07:08:25;;;;;;;9.23;1.63;;;10.90;71.90;;;;;;4944235;28;20518;-78
2023/02/02 07:10:50;;;;;;;8.15;1.33;;;11.00;72.20;;;;;;4941973;28;20070;-79
2023/02/02 07:13:16;;;;;;;6.43;1.35;;;11.00;72.10;;;;;;4944024;29;20035;-79
2023/02/02 07:15:42;;;;;;;5.68;1.63;;;11.00;72.10;;;;;;4944413;28;20035;-81
2023/02/02 07:18:08;;;;;;;8.60;1.63;;;11.00;72.10;;;;;;4941075;28;20062;-82
2023/02/02 07:20:34;;;;;;;12.57;1.55;;;11.00;72.10;;;;;;4942977;29;20412;-83
2023/02/02 07:23:03;;;;;;;8.00;2.50;;;11.00;72.10;;;;;;4944173;28;20078;-76
2023/02/02 07:25:29;;;;;;;7.65;1.52;;;11.00;72.20;;;;;;4941906;28;20097;-79
2023/02/02 07:27:55;;;;;;;10.63;1.67;;;11.00;72.30;;;;;;4942640;28;20031;-78
2023/02/02 07:30:21;;;;;;;6.57;1.83;;;11.00;72.30;;;;;;4944610;28;20375;-78
2023/02/02 07:32:48;;;;;;;9.07;2.50;;;11.00;72.30;;;;;;4945671;29;20101;-82
2023/02/02 07:35:15;;;;;;;9.60;2.17;;;11.00;72.30;;;;;;4944289;28;20039;-81
2023/02/02 07:37:41;;;;;;;7.95;2.20;;;11.00;72.40;;;;;;4947785;28;20032;-81
2023/02/02 07:40:09;;;;;;;7.45;1.95;;;10.90;72.20;;;;;;4944192;28;20050;-81
2023/02/02 07:42:35;;;;;;;5.95;1.58;;;11.00;72.40;;;;;;4943552;29;20035;-79
2023/02/02 07:45:01;;;;;;;9.48;1.83;;;10.90;72.30;;;;;;4938656;29;20082;-79
2023/02/02 07:47:27;;;;;;;7.88;2.30;;;11.00;72.50;;;;;;4940756;28;20437;-83
2023/02/02 07:49:53;;;;;;;6.95;1.67;;;10.90;72.30;;;;;;4946939;28;20478;-84
2023/02/02 07:52:19;;;;;;;7.38;1.80;;;10.90;72.30;;;;;;4938972;29;20074;-84
2023/02/02 07:54:44;;;;;;;9.23;2.58;;;10.90;72.30;;;;;;4946540;28;20045;-79
2023/02/02 07:57:12;;;;;;;6.53;1.70;;;11.00;72.50;;;;;;4951749;28;20031;-80
2023/02/02 07:59:38;;;;;;;8.27;1.80;;;11.00;72.50;;;;;;4933056;28;20039;-79
2023/02/02 08:02:04;;;;;;;7.00;1.52;;;11.00;72.50;;;;;;4944375;29;20061;-79
2023/02/02 08:04:32;;;;;;;8.70;1.88;;;11.00;72.50;;;;;;4958961;28;20046;-80
2023/02/02 08:06:59;;;;;;;7.03;1.85;;;11.00;72.50;;;;;;4955068;28;20041;-80
2023/02/02 08:09:25;;;;;;;5.05;2.10;;;11.00;72.50;;;;;;4945337;28;20058;-83
2023/02/02 08:11:51;;;;;;;9.25;2.38;;;11.00;72.50;;;;;;4944328;29;20027;-78
2023/02/02 08:14:17;;;;;;;10.63;2.05;;;11.00;72.50;;;;;;4946441;28;20070;-78
2023/02/02 08:16:43;;;;;;;6.43;2.33;;;11.00;72.50;;;;;;4944245;29;20038;-79
2023/02/02 08:19:10;;;;;;;11.60;2.58;;;11.00;72.50;;;;;;4953607;28;20035;-78
2023/02/02 08:21:36;;;;;;;11.10;2.20;;;11.00;72.50;;;;;;4954995;28;20077;-82
2023/02/02 08:24:03;;;;;;;11.50;2.58;;;10.90;72.30;;;;;;4945265;28;20046;-80
2023/02/02 08:26:30;;;;;;;14.52;2.63;;;11.00;72.50;;;;;;4946032;28;20118;-77
2023/02/02 08:28:59;;;;;;;7.00;3.33;;;11.00;72.50;;;;;;4954486;28;20046;-78
2023/02/02 08:31:29;;;;;;;11.52;2.15;;;11.00;72.50;;;;;;4959811;28;20042;-77
2023/02/02 08:33:57;;;;;;;7.80;2.15;;;11.00;72.60;;;;;;4951863;28;20039;-77
2023/02/02 08:36:28;;;;;;;6.32;2.05;;;11.00;72.60;;;;;;4960337;28;20027;-78
2023/02/02 08:38:54;;;;;;;9.73;2.53;;;11.00;72.50;;;;;;4937572;28;20202;-77
2023/02/02 08:41:22;;;;;;;12.35;3.38;;;11.00;72.50;;;;;;4945340;28;20038;-79
2023/02/02 08:43:49;;;;;;;6.30;2.25;;;11.00;72.50;;;;;;4943542;28;20541;-77
2023/02/02 08:46:16;;;;;;;9.98;1.88;;;11.10;72.70;;;;;;4931212;28;20420;-77
2023/02/02 08:48:43;;;;;;;11.90;2.70;;;11.10;72.70;;;;;;4949984;28;20022;-78
2023/02/02 08:51:13;;;;;;;8.93;2.63;;;11.10;72.70;;;;;;4957994;28;20042;-77
2023/02/02 08:53:40;;;;;;;12.00;3.58;;;11.10;72.70;;;;;;4952189;28;20030;-80
2023/02/02 08:56:18;;;;;;;11.20;3.33;;;11.10;72.60;;;;;;4928890;28;20237;-77
2023/02/02 08:58:51;;;;;;;11.40;1.88;;;11.20;72.80;;;;;;4953389;28;20046;-78
2023/02/02 09:01:20;;;;;;;10.85;2.15;;;11.20;72.80;;;;;;4943205;28;20395;-80
2023/02/02 09:03:46;;;;;;;8.52;2.10;;;11.20;72.70;;;;;;4953426;28;20066;-81
2023/02/02 09:06:16;;;;;;;10.57;3.20;;;11.20;72.60;;;;;;4947055;28;20034;-81
2023/02/02 09:08:44;;;;;;;9.65;2.40;;;11.20;72.60;;;;;;4942100;28;20031;-81
2023/02/02 09:11:12;;;;;;;11.48;3.85;;;11.30;73.30;;;;;;4941027;29;20050;-81
2023/02/02 09:13:40;;;;;;;11.80;2.90;;;11.30;72.70;;;;;;4945771;28;20516;-80
2023/02/02 09:16:09;;;;;;;9.48;2.78;;;11.40;72.80;;;;;;4943384;29;20043;-81
2023/02/02 09:18:35;;;;;;;12.35;3.65;;;11.40;72.70;;;;;;4945151;28;20030;-80
2023/02/02 09:21:03;;;;;;;13.13;2.55;;;11.50;72.80;;;;;;4942773;29;20031;-79
2023/02/02 09:23:31;;;;;;;9.77;2.55;;;11.50;72.90;;;;;;4943990;28;20141;-77
2023/02/02 09:25:57;;;;;;;11.38;3.10;;;11.50;73.10;;;;;;4943850;28;20503;-78
2023/02/02 09:28:23;;;;;;;10.50;2.50;;;11.60;72.70;;;;;;4937775;28;20507;-77
2023/02/02 09:30:49;;;;;;;11.95;2.60;;;11.60;72.60;;;;;;4944915;29;20019;-78
2023/02/02 09:33:15;;;;;;;9.95;2.20;;;11.60;72.60;;;;;;4935903;28;20032;-78
2023/02/02 09:35:41;;;;;;;9.68;2.38;;;11.70;72.70;;;;;;4942284;29;20046;-81
2023/02/02 09:38:06;;;;;;;6.15;1.83;;;11.80;73.30;;;;;;4943153;29;20237;-82
2023/02/02 09:40:34;;;;;;;13.38;3.53;;;11.80;72.60;;;;;;4942324;29;20487;-83
2023/02/02 09:43:22;;;;;;;10.50;2.97;;;11.90;72.70;;;;;;4944072;29;20070;-78
2023/02/02 09:46:02;;;;;;;8.25;2.58;;;11.90;72.60;;;;;;4926598;28;20175;-78
2023/02/02 09:48:41;;;;;;;12.30;2.85;;;12.00;72.60;;;;;;4944704;28;20268;-78
2023/02/02 09:51:14;;;;;;;7.15;2.13;;;12.00;72.60;;;;;;4943671;28;20027;-79
2023/02/02 09:53:43;;;;;;;;;;;12.00;72.60;;;;;;4951813;28;20066;-79
2023/02/02 09:56:17;;;;;;;11.85;2.97;;;12.00;72.50;;;;;;4948500;28;20289;-79
2023/02/02 09:58:55;;;;;;;9.98;2.63;;;12.00;72.40;;;;;;4942017;28;20357;-80
2023/02/02 10:01:30;;;;;;;9.18;2.70;;;12.10;72.60;;;;;;4936223;28;20075;-79
2023/02/02 10:04:06;;;;;;;13.57;3.17;;;12.10;72.50;;;;;;4940963;28;20114;-78
2023/02/02 10:06:43;;;;;;;10.13;2.35;;;12.10;72.50;;;;;;4941746;28;20377;-78
2023/02/02 10:09:39;;;;;;;10.93;2.92;;;12.10;72.40;;;;;;4940745;29;20077;-79
2023/02/02 10:12:26;;;;;;;12.30;2.58;;;12.20;72.50;;;;;;4944417;28;20019;-81
2023/02/02 10:15:05;;;;;;;7.65;2.17;;;12.20;72.40;;;;;;4941947;28;20103;-82
2023/02/02 10:17:44;;;;;;;11.52;2.00;;;12.30;72.50;;;;;;4942324;29;20515;-81
2023/02/02 10:20:22;;;;;;;15.30;3.38;;;12.30;72.40;;;;;;4943187;28;20627;-81
2023/02/02 10:22:49;;;;;;;8.00;1.73;;;12.40;72.50;;;;;;4956761;28;20040;-81
2023/02/02 10:25:16;;;;;;;9.15;1.88;;;12.40;72.30;;;;;;4956288;28;20277;-79
2023/02/02 10:27:57;;;;;;;11.60;2.25;;;12.50;72.50;;;;;;4940135;28;20442;-81
2023/02/02 10:30:49;;;;;;;6.28;2.08;;;12.50;72.40;;;;;;4940638;28;20051;-79
2023/02/02 10:33:38;;;;;;;10.20;2.40;;;12.60;72.40;;;;;;4945079;28;20035;-78
2023/02/02 10:36:16;;;;;;;12.23;2.03;;;12.70;72.30;;;;;;4929223;29;20419;-78
2023/02/02 10:38:51;;;;;;;13.48;2.58;;;12.80;72.30;;;;;;4939574;29;20364;-78
2023/02/02 10:41:57;;;;;;;6.82;1.75;;;12.90;72.20;;;;;;4942339;29;20615;-77
2023/02/02 10:44:47;;;;;;;9.77;2.45;;;13.00;72.20;;;;;;4942967;29;20039;-77
2023/02/02 10:47:29;;;;;;;8.85;1.90;;;13.10;72.10;;;;;;4931608;28;20027;-78
2023/02/02 10:50:03;;;;;;;10.15;2.10;;;13.20;72.00;;;;;;4936268;28;20036;-77
2023/02/02 10:52:32;;;;;;;6.75;2.33;;;13.30;72.00;;;;;;4955536;28;20533;-78
2023/02/02 10:55:14;;;;;;;8.38;2.30;;;13.30;71.80;;;;;;4939608;28;20618;-78
2023/02/02 10:58:00;;;;;;;7.60;2.08;;;13.40;71.80;;;;;;4943829;28;20279;-80
2023/02/02 11:00:39;;;;;;;8.05;1.55;;;13.40;71.70;;;;;;4948355;28;20047;-79
2023/02/02 11:03:08;;;;;;;10.70;3.33;;;13.40;71.60;;;;;;4944681;28;20079;-79
2023/02/02 11:08:27;;;;;;;7.35;1.50;;;13.50;71.50;;;;;;4939826;28;20130;-77
2023/02/02 11:10:55;;;;;;;7.70;2.38;;;13.60;71.50;;;;;;4944296;29;20054;-79
2023/02/02 11:13:29;;;;;;;9.77;1.88;;;13.70;71.50;;;;;;4943384;28;20399;-79
2023/02/02 11:16:23;;;;;;;8.48;1.55;;;13.70;71.30;;;;;;4946131;29;20570;-81
2023/02/02 11:18:49;;;;;;;6.97;1.75;;;13.70;71.10;;;;;;4939855;29;20051;-80
2023/02/02 11:21:26;;;;;;;8.30;1.83;;;13.80;71.20;;;;;;4948238;28;20241;-80
2023/02/02 11:23:58;;;;;;;8.25;1.73;;;13.90;71.20;;;;;;4942461;29;20090;-79
2023/02/02 11:26:27;;;;;;;8.43;1.73;;;14.00;71.20;;;;;;4946145;29;20057;-81
2023/02/02 11:28:54;;;;;;;6.28;1.70;;;14.00;71.20;;;;;;4945032;29;20050;-81
2023/02/02 11:31:36;;;;;;;6.00;1.70;;;14.10;71.10;;;;;;4926594;29;20683;-81
2023/02/02 11:34:23;;;;;;;7.05;1.60;;;14.10;70.90;;;;;;4924982;29;20586;-78
2023/02/02 11:37:23;;;;;;;5.70;1.95;;;14.20;70.90;;;;;;4941337;29;20036;-79
2023/02/02 11:39:52;;;;;;;9.57;1.80;;;14.20;70.70;;;;;;4937462;29;20044;-78
2023/02/02 11:42:23;;;;;;;5.85;1.75;;;14.30;70.90;;;;;;4950386;28;20595;-77
2023/02/02 11:44:55;;;;;;;10.60;2.78;;;14.30;70.80;;;;;;4944894;28;20047;-77
2023/02/02 11:47:30;;;;;;;9.88;2.88;;;14.30;70.90;;;;;;4928666;28;20550;-77
2023/02/02 11:49:59;;;;;;;9.43;2.40;;;14.40;71.00;;;;;;4946332;28;20134;-77
2023/02/02 11:52:27;;;;;;;8.45;1.77;;;14.40;70.90;;;;;;4950692;28;20380;-77
2023/02/02 11:55:00;;;;;;;10.13;2.58;;;14.40;70.80;;;;;;4941259;28;20411;-78
2023/02/02 11:57:28;;;;;;;6.63;1.95;;;14.40;70.70;;;;;;4944108;28;20046;-77
2023/02/02 12:00:10;;;;;;;7.57;1.77;;;14.50;70.80;;;;;;4944501;28;20197;-78
2023/02/02 12:02:36;;;;;;;11.18;2.40;;;14.50;70.60;;;;;;4965629;28;20038;-79
2023/02/02 12:05:13;;;;;;;10.80;2.80;;;14.60;70.70;;;;;;4945769;28;20404;-80
2023/02/02 12:07:42;;;;;;;11.95;2.95;;;14.60;70.50;;;;;;4944697;28;20134;-84
2023/02/02 12:10:36;;;;;;;7.35;2.35;;;14.60;70.50;;;;;;4942838;28;20035;-83
2023/02/02 12:13:12;;;;;;;7.43;2.67;;;14.70;70.60;;;;;;4947227;28;20491;-85
2023/02/02 12:16:05;;;;;;;12.50;2.45;;;14.70;70.50;;;;;;4945043;29;20046;-80
2023/02/02 12:18:56;;;;;;;9.38;2.28;;;14.80;70.50;;;;;;4937277;29;20265;-79
2023/02/02 12:21:46;;;;;;;8.30;1.95;;;14.80;70.30;;;;;;4933043;29;20373;-79
2023/02/02 12:24:35;;;;;;;8.68;2.05;;;14.80;70.20;;;;;;4938290;29;20083;-78
2023/02/02 12:27:17;;;;;;;7.60;1.73;;;14.80;70.20;;;;;;4926670;29;20338;-78
2023/02/02 12:29:55;;;;;;;8.65;3.28;;;14.80;70.20;;;;;;4943814;29;20047;-76
2023/02/02 12:32:41;;;;;;;8.82;2.53;;;14.80;70.20;;;;;;4942424;28;20526;-77
2023/02/02 12:35:38;;;;;;;4.65;1.65;;;14.80;70.10;;;;;;4944579;28;20042;-76
2023/02/02 12:38:34;;;;;;;8.18;2.10;;;14.80;70.10;;;;;;4942526;29;20458;-81
2023/02/02 12:41:19;;;;;;;7.35;1.90;;;14.80;70.00;;;;;;4940253;29;20582;-80
2023/02/02 12:43:55;;;;;;;6.13;1.80;;;14.80;70.00;;;;;;4941479;29;20442;-80
2023/02/02 12:46:59;;;;;;;7.53;1.50;;;14.80;69.80;;;;;;4932698;28;20038;-82
2023/02/02 12:50:00;;;;;;;;;;;14.80;69.60;;;;;;4939724;28;20114;-82
2023/02/02 12:52:46;;;;;;;5.88;1.63;;;14.90;69.90;;;;;;4910960;29;19911;-83
2023/02/02 12:55:32;;;;;;;6.22;2.50;;;14.90;70.00;;;;;;4932206;28;20520;-82
2023/02/02 12:58:26;;;;;;;13.18;3.38;;;15.00;70.30;;;;;;4937656;29;20042;-82
2023/02/02 13:00:57;;;;;;;9.13;3.53;;;15.10;70.40;;;;;;4931755;29;20044;-81
2023/02/02 13:03:35;;;;;;;7.70;2.08;;;15.20;70.50;;;;;;4933689;29;20035;-82
2023/02/02 13:06:31;;;;;;;5.53;2.22;;;15.30;70.60;;;;;;4945006;29;20047;-81
2023/02/02 13:09:27;;;;;;;6.22;2.40;;;15.40;70.70;;;;;;4938753;28;20083;-81
2023/02/02 13:11:56;;;;;;;8.63;2.47;;;15.40;70.50;;;;;;4936293;29;20093;-78
2023/02/02 13:14:28;;;;;;;7.80;2.05;;;15.50;70.50;;;;;;4945108;28;20035;-78
2023/02/02 13:17:01;;;;;;;4.00;1.77;;;15.60;70.50;;;;;;4945373;28;20062;-78
2023/02/02 13:19:44;;;;;;;5.88;2.38;;;15.70;70.50;;;;;;4943253;29;20035;-79